Time;durP1;ratioP1;P1;durP2;ratioP2;P2;SDS_P1;SDS_P2;PMS_P1;PMS_P2;Temp;Humidity;BMP_temperature;BMP_pressure;BME280_temperature;BME280_humidity;BME280_pressure;Samples;Min_cycle;Max_cycle;Signal;HPM_P1;HPM_P2
2023/07/26 00:00:52;;;;;;;5.03;1.90;;;11.30;99.90;;;;;;6234113;23;20024;-83
2023/07/26 00:03:17;;;;;;;4.75;2.08;;;11.30;99.90;;;;;;6233911;23;20320;-82
2023/07/26 00:05:43;;;;;;;4.97;2.03;;;11.30;99.90;;;;;;6234045;23;20019;-82
2023/07/26 00:08:08;;;;;;;4.50;2.00;;;11.30;99.90;;;;;;6233626;23;20071;-81
2023/07/26 00:10:34;;;;;;;4.75;2.00;;;11.30;99.90;;;;;;6203618;23;20008;-82
2023/07/26 00:12:59;;;;;;;2.75;1.80;;;11.30;99.90;;;;;;6231486;23;20007;-82
2023/07/26 00:15:25;;;;;;;4.97;2.15;;;11.20;99.90;;;;;;6234849;23;20087;-81
2023/07/26 00:17:51;;;;;;;5.43;1.80;;;11.20;99.90;;;;;;6234128;23;20008;-81
2023/07/26 00:20:16;;;;;;;1.83;1.40;;;11.20;99.90;;;;;;6207091;23;20070;-81
2023/07/26 00:22:42;;;;;;;3.25;2.00;;;11.20;99.90;;;;;;6207457;23;20004;-81
2023/07/26 00:25:08;;;;;;;5.63;1.95;;;11.20;99.90;;;;;;6207368;23;20313;-82
2023/07/26 00:27:36;;;;;;;3.10;1.75;;;11.20;99.90;;;;;;6206677;23;20008;-82
2023/07/26 00:30:01;;;;;;;3.30;1.90;;;11.10;99.90;;;;;;6234305;23;20004;-81
2023/07/26 00:32:28;;;;;;;2.78;1.85;;;11.00;99.90;;;;;;6233321;23;20050;-81
2023/07/26 00:34:54;;;;;;;3.58;1.70;;;11.00;99.90;;;;;;6207804;23;20038;-82
2023/07/26 00:37:19;;;;;;;4.32;1.73;;;11.00;99.90;;;;;;6206438;23;20008;-82
2023/07/26 00:39:45;;;;;;;4.25;2.08;;;10.90;99.90;;;;;;6208984;23;20010;-81
2023/07/26 00:42:14;;;;;;;4.68;2.20;;;10.90;99.90;;;;;;6206903;23;20381;-81
2023/07/26 00:44:39;;;;;;;2.55;2.28;;;10.80;99.90;;;;;;6205545;23;20308;-82
2023/07/26 00:47:05;;;;;;;2.60;1.77;;;10.80;99.90;;;;;;6203941;23;20012;-81
2023/07/26 00:49:31;;;;;;;3.90;2.20;;;10.70;99.90;;;;;;6232599;23;20027;-81
2023/07/26 00:51:57;;;;;;;4.22;2.05;;;10.70;99.90;;;;;;6234346;23;20032;-82
2023/07/26 00:54:22;;;;;;;2.55;1.65;;;10.70;99.90;;;;;;6207391;23;20066;-81
2023/07/26 00:56:48;;;;;;;3.13;1.90;;;10.70;99.90;;;;;;6206399;23;20004;-82
2023/07/26 00:59:14;;;;;;;3.05;1.80;;;10.70;99.90;;;;;;6207119;23;20066;-82
2023/07/26 01:01:40;;;;;;;3.67;2.10;;;10.60;99.90;;;;;;6208056;23;20008;-82
2023/07/26 01:04:06;;;;;;;3.38;1.95;;;10.60;99.90;;;;;;6232303;23;20019;-82
2023/07/26 01:06:56;;;;;;;4.25;2.28;;;10.60;99.90;;;;;;6204745;23;20085;-81
2023/07/26 01:09:27;;;;;;;3.60;2.35;;;10.60;99.90;;;;;;6234976;23;20138;-83
2023/07/26 01:12:09;;;;;;;4.72;1.95;;;10.50;99.90;;;;;;6236262;23;20022;-80
2023/07/26 01:14:58;;;;;;;4.18;2.05;;;10.50;99.90;;;;;;6209921;23;20124;-82
2023/07/26 01:17:23;;;;;;;7.35;2.35;;;10.50;99.90;;;;;;6210522;23;20004;-82
2023/07/26 01:19:50;;;;;;;3.97;2.05;;;10.50;99.90;;;;;;6235356;23;20091;-82
2023/07/26 01:22:15;;;;;;;5.95;2.40;;;10.50;99.90;;;;;;6234316;23;20319;-82
2023/07/26 01:24:41;;;;;;;3.88;2.60;;;10.50;99.90;;;;;;6232416;23;20032;-82
2023/07/26 01:27:06;;;;;;;4.40;2.40;;;10.50;99.90;;;;;;6232547;23;20058;-81
2023/07/26 01:29:32;;;;;;;3.58;2.17;;;10.50;99.90;;;;;;6232211;23;20404;-82
2023/07/26 01:31:58;;;;;;;4.68;2.60;;;10.50;99.90;;;;;;6233950;23;20008;-81
2023/07/26 01:34:24;;;;;;;6.57;2.42;;;10.50;99.90;;;;;;6204035;23;20011;-81
2023/07/26 01:36:53;;;;;;;4.82;2.50;;;10.50;99.90;;;;;;6235221;23;20040;-81
2023/07/26 01:39:19;;;;;;;4.53;2.38;;;10.60;99.90;;;;;;6234984;23;20436;-81
2023/07/26 01:41:46;;;;;;;5.75;2.40;;;10.50;99.90;;;;;;6207322;23;20012;-81
2023/07/26 01:44:12;;;;;;;4.10;2.00;;;10.60;99.90;;;;;;6206441;23;20011;-81
2023/07/26 01:46:38;;;;;;;3.65;2.28;;;10.60;99.90;;;;;;6234066;23;20008;-82
2023/07/26 01:49:04;;;;;;;2.92;2.00;;;10.60;99.90;;;;;;6231621;23;20036;-82
2023/07/26 01:51:29;;;;;;;4.57;2.22;;;10.60;99.90;;;;;;6229521;23;20159;-82
2023/07/26 01:53:55;;;;;;;6.03;2.30;;;10.60;99.90;;;;;;6201465;23;20058;-81
2023/07/26 01:56:20;;;;;;;6.35;2.15;;;10.70;99.90;;;;;;6229005;23;20259;-82
2023/07/26 01:58:46;;;;;;;5.28;2.72;;;10.70;99.90;;;;;;6227795;23;20014;-81
2023/07/26 02:01:12;;;;;;;3.13;2.08;;;10.70;99.90;;;;;;6228315;23;20382;-81
2023/07/26 02:03:39;;;;;;;3.72;2.20;;;10.70;99.90;;;;;;6229203;23;20101;-81
2023/07/26 02:06:04;;;;;;;3.28;2.13;;;10.60;99.90;;;;;;6229875;23;20352;-81
2023/07/26 02:08:30;;;;;;;3.58;2.42;;;10.60;99.90;;;;;;6205239;23;20014;-82
2023/07/26 02:10:56;;;;;;;5.70;2.20;;;10.60;99.90;;;;;;6232315;23;20007;-81
2023/07/26 02:13:21;;;;;;;4.75;2.58;;;10.50;99.90;;;;;;6232209;23;20000;-82
2023/07/26 02:15:47;;;;;;;3.92;2.15;;;10.50;99.90;;;;;;6232099;23;20082;-81
2023/07/26 02:18:13;;;;;;;4.20;2.08;;;10.40;99.90;;;;;;6232781;23;20042;-81
2023/07/26 02:20:38;;;;;;;4.65;2.30;;;10.40;99.90;;;;;;6204185;23;20462;-82
2023/07/26 02:23:04;;;;;;;3.38;2.13;;;10.40;99.90;;;;;;6205182;23;20015;-82
2023/07/26 02:25:30;;;;;;;4.78;2.38;;;10.30;99.90;;;;;;6231687;23;20016;-82
2023/07/26 02:27:55;;;;;;;5.40;1.83;;;10.30;99.90;;;;;;6230129;23;20038;-81
2023/07/26 02:30:21;;;;;;;5.43;2.55;;;10.30;99.90;;;;;;6228910;23;20004;-82
2023/07/26 02:32:47;;;;;;;4.15;2.08;;;10.30;99.90;;;;;;6202836;23;20000;-82
2023/07/26 02:35:12;;;;;;;3.90;2.58;;;10.20;99.90;;;;;;6229125;23;20018;-81
2023/07/26 02:37:38;;;;;;;3.20;2.10;;;10.20;99.90;;;;;;6202838;23;20012;-82
2023/07/26 02:40:04;;;;;;;3.97;2.15;;;10.20;99.90;;;;;;6204636;23;20008;-81
2023/07/26 02:42:29;;;;;;;3.20;2.40;;;10.10;99.90;;;;;;6205952;23;20058;-82
2023/07/26 02:44:55;;;;;;;4.72;2.13;;;10.10;99.90;;;;;;6231782;23;20082;-81
2023/07/26 02:47:20;;;;;;;3.58;2.45;;;10.10;99.90;;;;;;6233295;23;20004;-82
2023/07/26 02:49:46;;;;;;;3.65;2.47;;;10.00;99.90;;;;;;6206000;23;20035;-81
2023/07/26 02:52:12;;;;;;;3.10;2.28;;;10.00;99.90;;;;;;6205636;23;20022;-82
2023/07/26 02:54:38;;;;;;;3.83;2.25;;;9.90;99.90;;;;;;6233297;23;20368;-81
2023/07/26 02:57:03;;;;;;;3.55;2.10;;;9.90;99.90;;;;;;6205231;23;20015;-81
2023/07/26 02:59:29;;;;;;;5.03;2.05;;;9.80;99.90;;;;;;6232460;23;20111;-81
2023/07/26 03:01:55;;;;;;;4.85;2.38;;;9.80;99.90;;;;;;6232013;23;20400;-82
2023/07/26 03:04:20;;;;;;;3.30;2.40;;;9.70;99.90;;;;;;6205319;23;20027;-81
2023/07/26 03:06:46;;;;;;;3.10;2.05;;;9.70;99.90;;;;;;6232709;23;20023;-81
2023/07/26 03:09:11;;;;;;;3.85;2.20;;;9.60;99.90;;;;;;6207387;23;20110;-81
2023/07/26 03:11:37;;;;;;;4.45;2.35;;;9.60;99.90;;;;;;6232390;23;20011;-81
2023/07/26 03:14:03;;;;;;;3.70;2.10;;;9.50;99.90;;;;;;6230522;23;20004;-81
2023/07/26 03:16:28;;;;;;;5.15;2.40;;;9.50;99.90;;;;;;6204252;23;20038;-82
2023/07/26 03:18:54;;;;;;;5.97;2.72;;;9.50;99.90;;;;;;6204823;23;20091;-81
2023/07/26 03:21:19;;;;;;;5.70;3.20;;;9.40;99.90;;;;;;6232499;23;20079;-82
2023/07/26 03:23:45;;;;;;;5.72;3.17;;;9.50;99.90;;;;;;6205453;23;20015;-82
2023/07/26 03:26:11;;;;;;;5.30;2.72;;;9.40;99.90;;;;;;6204899;23;20076;-81
2023/07/26 03:28:36;;;;;;;6.15;2.58;;;9.50;99.90;;;;;;6232397;23;20004;-81
2023/07/26 03:31:02;;;;;;;6.70;2.58;;;9.60;99.90;;;;;;6232280;23;20015;-82
2023/07/26 03:33:27;;;;;;;5.05;2.53;;;9.60;99.90;;;;;;6205169;23;20015;-81
2023/07/26 03:35:53;;;;;;;5.90;2.67;;;9.60;99.90;;;;;;6232129;23;20442;-82
2023/07/26 03:38:19;;;;;;;5.53;2.80;;;9.60;99.90;;;;;;6231652;23;20311;-81
2023/07/26 03:40:45;;;;;;;4.38;2.63;;;9.60;99.90;;;;;;6203949;23;20043;-81
2023/07/26 03:43:10;;;;;;;4.18;2.40;;;9.60;99.90;;;;;;6231124;23;20099;-82
2023/07/26 03:45:36;;;;;;;4.05;2.35;;;9.60;99.90;;;;;;6205223;23;20012;-81
2023/07/26 03:48:02;;;;;;;3.80;2.40;;;9.60;99.90;;;;;;6204259;23;20045;-81
2023/07/26 03:50:28;;;;;;;3.72;2.40;;;9.50;99.90;;;;;;6206029;23;20012;-81
2023/07/26 03:52:53;;;;;;;4.38;2.70;;;9.50;99.90;;;;;;6232487;23;20083;-82
2023/07/26 03:55:19;;;;;;;3.28;2.55;;;9.40;99.90;;;;;;6232580;23;20004;-81
2023/07/26 03:57:44;;;;;;;3.88;2.50;;;9.40;99.90;;;;;;6232165;23;20000;-81
2023/07/26 04:00:10;;;;;;;4.63;2.50;;;9.30;99.90;;;;;;6232436;23;20395;-81
2023/07/26 04:02:36;;;;;;;6.22;2.70;;;9.30;99.90;;;;;;6203859;23;20008;-81
2023/07/26 04:05:02;;;;;;;3.53;2.92;;;9.30;99.90;;;;;;6204939;23;20012;-82
2023/07/26 04:07:27;;;;;;;4.55;2.80;;;9.20;99.90;;;;;;6205843;23;20012;-81
2023/07/26 04:09:53;;;;;;;5.00;2.72;;;9.20;99.90;;;;;;6206543;23;20008;-82
2023/07/26 04:12:18;;;;;;;5.25;2.90;;;9.20;99.90;;;;;;6233048;23;20011;-81
2023/07/26 04:14:44;;;;;;;4.13;2.67;;;9.30;99.90;;;;;;6233620;23;20442;-81
2023/07/26 04:17:10;;;;;;;4.30;3.03;;;9.30;99.90;;;;;;6206436;23;20008;-81
2023/07/26 04:19:35;;;;;;;5.22;2.58;;;9.30;99.90;;;;;;6231813;23;20004;-81
2023/07/26 04:22:01;;;;;;;4.75;3.10;;;9.40;99.90;;;;;;6233618;23;20069;-81
2023/07/26 04:24:27;;;;;;;4.03;2.75;;;9.40;99.90;;;;;;6234196;23;20055;-82
2023/07/26 04:26:52;;;;;;;3.67;2.75;;;9.40;99.90;;;;;;6205796;23;20088;-82
2023/07/26 04:29:18;;;;;;;4.47;2.75;;;9.40;99.90;;;;;;6207351;23;20134;-81
2023/07/26 04:31:44;;;;;;;3.15;2.60;;;9.40;99.90;;;;;;6231671;23;20008;-82
2023/07/26 04:34:12;;;;;;;5.18;3.00;;;9.40;99.90;;;;;;6204636;23;20340;-82
2023/07/26 04:36:38;;;;;;;4.15;3.10;;;9.40;99.90;;;;;;6231208;23;21035;-82
2023/07/26 04:39:03;;;;;;;6.03;2.80;;;9.50;99.90;;;;;;6232229;23;20031;-81
2023/07/26 04:41:29;;;;;;;4.45;2.88;;;9.60;99.90;;;;;;6230264;23;20108;-82
2023/07/26 04:43:54;;;;;;;4.95;3.00;;;9.70;99.90;;;;;;6204576;23;20066;-81
2023/07/26 04:46:20;;;;;;;5.53;3.13;;;9.70;99.90;;;;;;6231181;23;20479;-81
2023/07/26 04:48:46;;;;;;;6.05;2.75;;;9.80;99.90;;;;;;6230031;23;20016;-81
2023/07/26 04:51:13;;;;;;;4.97;3.13;;;9.90;99.90;;;;;;6232401;23;20055;-81
2023/07/26 04:53:38;;;;;;;4.88;2.67;;;9.90;99.90;;;;;;6232784;23;20008;-81
2023/07/26 04:56:04;;;;;;;4.03;2.45;;;10.00;99.90;;;;;;6232593;23;20106;-81
2023/07/26 04:58:30;;;;;;;3.08;2.20;;;10.00;99.90;;;;;;6230861;23;20007;-81
2023/07/26 05:00:55;;;;;;;3.90;2.42;;;10.00;99.90;;;;;;6205972;23;20024;-81
2023/07/26 05:03:21;;;;;;;4.65;2.50;;;10.00;99.90;;;;;;6233972;23;20047;-82
2023/07/26 05:05:52;;;;;;;3.67;2.28;;;10.10;99.90;;;;;;6233950;23;20066;-81
2023/07/26 05:08:18;;;;;;;6.00;2.45;;;10.20;99.90;;;;;;6207289;23;20004;-82
2023/07/26 05:10:49;;;;;;;7.50;2.67;;;10.20;99.90;;;;;;6233397;23;20019;-80
2023/07/26 05:13:15;;;;;;;6.95;2.38;;;10.20;99.90;;;;;;6206770;23;20709;-81
2023/07/26 05:15:40;;;;;;;4.32;2.40;;;10.20;99.90;;;;;;6205902;23;20067;-81
2023/07/26 05:18:06;;;;;;;4.45;2.13;;;10.30;99.90;;;;;;6234054;23;20697;-81
2023/07/26 05:20:31;;;;;;;4.47;2.70;;;10.30;99.90;;;;;;6233534;23;20008;-81
2023/07/26 05:22:57;;;;;;;5.68;3.10;;;10.40;99.90;;;;;;6233081;23;20019;-82
2023/07/26 05:25:22;;;;;;;3.15;2.13;;;10.40;99.90;;;;;;6206403;23;20452;-81
2023/07/26 05:27:48;;;;;;;3.88;2.40;;;10.50;99.90;;;;;;6233129;23;20036;-80
2023/07/26 05:30:17;;;;;;;4.10;2.58;;;10.50;99.90;;;;;;6205286;23;20932;-81
2023/07/26 05:32:44;;;;;;;3.38;2.17;;;10.50;99.90;;;;;;6232499;23;20008;-81
2023/07/26 05:35:12;;;;;;;4.55;2.20;;;10.60;99.90;;;;;;6233884;23;20000;-81
2023/07/26 05:37:37;;;;;;;3.90;2.47;;;10.60;99.90;;;;;;6205936;23;20008;-81
2023/07/26 05:40:05;;;;;;;3.80;2.40;;;10.60;99.90;;;;;;6233399;23;20289;-80
2023/07/26 05:42:34;;;;;;;4.57;2.35;;;10.60;99.90;;;;;;6203295;23;20060;-80
2023/07/26 05:45:00;;;;;;;3.00;2.15;;;10.60;99.90;;;;;;6230566;23;20079;-81
2023/07/26 05:47:25;;;;;;;6.63;2.45;;;10.60;99.90;;;;;;6203617;23;20049;-81
2023/07/26 05:49:51;;;;;;;4.20;2.33;;;10.60;99.90;;;;;;6203607;23;20008;-81
2023/07/26 05:52:16;;;;;;;3.33;2.42;;;10.70;99.90;;;;;;6230156;23;20160;-81
2023/07/26 05:54:42;;;;;;;5.85;2.65;;;10.80;99.90;;;;;;6203708;23;20008;-81
2023/07/26 05:57:08;;;;;;;4.13;2.60;;;10.90;99.90;;;;;;6230638;23;20000;-81
2023/07/26 05:59:34;;;;;;;2.95;2.25;;;11.00;99.90;;;;;;6230851;23;20018;-80
2023/07/26 06:02:00;;;;;;;5.05;2.28;;;11.10;99.90;;;;;;6231966;23;20258;-81
2023/07/26 06:04:29;;;;;;;6.53;2.63;;;11.20;99.90;;;;;;6229969;23;20140;-81
2023/07/26 06:06:55;;;;;;;55.17;32.25;;;11.20;99.90;;;;;;6229296;23;20023;-81
2023/07/26 06:09:22;;;;;;;44.90;23.00;;;11.40;99.90;;;;;;6203577;23;20336;-81
2023/07/26 06:11:48;;;;;;;7.60;4.57;;;11.50;99.90;;;;;;6228924;23;20076;-81
2023/07/26 06:14:13;;;;;;;6.30;3.58;;;11.50;99.90;;;;;;6230817;23;20012;-81
2023/07/26 06:16:39;;;;;;;4.15;2.90;;;11.60;99.90;;;;;;6227528;23;20450;-81
2023/07/26 06:19:05;;;;;;;4.00;2.50;;;11.70;99.90;;;;;;6202027;23;20000;-81
2023/07/26 06:21:30;;;;;;;4.00;2.30;;;11.80;99.90;;;;;;6231355;23;20031;-81
2023/07/26 06:23:56;;;;;;;4.60;2.70;;;11.90;99.90;;;;;;6229978;23;20023;-80
2023/07/26 06:26:21;;;;;;;43.80;27.55;;;12.10;99.90;;;;;;6230029;23;20012;-81
2023/07/26 06:28:47;;;;;;;16.17;10.63;;;12.20;99.90;;;;;;6228270;23;20154;-81
2023/07/26 06:31:13;;;;;;;53.10;30.63;;;12.40;99.90;;;;;;6226843;23;20017;-79
2023/07/26 06:33:38;;;;;;;24.17;14.30;;;12.40;99.90;;;;;;6230315;23;20031;-81
2023/07/26 06:36:04;;;;;;;9.43;6.18;;;12.60;99.90;;;;;;6231666;23;20032;-81
2023/07/26 06:38:30;;;;;;;7.43;3.13;;;12.70;99.90;;;;;;6230587;23;20065;-80
2023/07/26 06:40:55;;;;;;;4.45;2.58;;;12.80;99.90;;;;;;6229883;23;20081;-81
2023/07/26 06:43:21;;;;;;;3.22;2.28;;;12.90;99.90;;;;;;6225780;23;20015;-81
2023/07/26 06:45:50;;;;;;;4.80;2.35;;;13.00;99.90;;;;;;6229192;23;20027;-81
2023/07/26 06:48:16;;;;;;;4.15;2.50;;;13.10;99.90;;;;;;6233275;23;20273;-80
2023/07/26 06:50:42;;;;;;;3.15;2.17;;;13.20;99.90;;;;;;6233952;23;20015;-80
2023/07/26 06:53:08;;;;;;;5.90;2.40;;;13.30;99.90;;;;;;6234029;23;20000;-81
2023/07/26 06:55:34;;;;;;;5.28;3.25;;;13.40;99.90;;;;;;6233851;23;20011;-80
2023/07/26 06:58:00;;;;;;;6.30;2.83;;;13.50;99.90;;;;;;6233309;23;20003;-80
2023/07/26 07:00:26;;;;;;;5.80;2.35;;;13.60;99.90;;;;;;6233265;23;20012;-81
2023/07/26 07:02:59;;;;;;;3.10;2.38;;;13.70;99.90;;;;;;6232707;23;20078;-80
2023/07/26 07:05:28;;;;;;;4.28;2.60;;;13.70;99.90;;;;;;6232781;23;20035;-80
2023/07/26 07:07:54;;;;;;;4.28;2.75;;;13.90;99.90;;;;;;6232545;23;20004;-81
2023/07/26 07:10:21;;;;;;;4.95;2.30;;;14.00;99.90;;;;;;6233059;23;20101;-81
2023/07/26 07:12:47;;;;;;;4.90;2.20;;;14.20;99.90;;;;;;6205593;23;20059;-81
2023/07/26 07:15:13;;;;;;;3.35;2.22;;;14.30;99.90;;;;;;6232878;23;20397;-81
2023/07/26 07:17:39;;;;;;;4.10;2.35;;;14.50;99.90;;;;;;6232508;23;20011;-81
2023/07/26 07:20:07;;;;;;;3.20;2.10;;;14.70;99.90;;;;;;6231032;23;20000;-81
2023/07/26 07:22:33;;;;;;;4.05;1.98;;;14.80;99.90;;;;;;6231257;23;20032;-81
2023/07/26 07:24:59;;;;;;;4.30;2.00;;;15.00;99.90;;;;;;6204436;23;20341;-81
2023/07/26 07:27:24;;;;;;;6.68;2.30;;;15.20;99.90;;;;;;6230406;23;20012;-81
2023/07/26 07:29:50;;;;;;;4.63;2.30;;;15.40;99.90;;;;;;6204367;23;20392;-82
2023/07/26 07:32:17;;;;;;;3.17;2.00;;;15.50;99.90;;;;;;6232073;23;20124;-81
2023/07/26 07:34:43;;;;;;;5.93;3.05;;;15.70;99.90;;;;;;6230147;23;20310;-81
2023/07/26 07:37:08;;;;;;;4.65;2.10;;;16.00;99.90;;;;;;6231213;23;20003;-81
2023/07/26 07:39:34;;;;;;;4.15;2.10;;;16.40;99.90;;;;;;6233286;23;20008;-81
2023/07/26 07:42:00;;;;;;;2.90;1.73;;;17.00;99.90;;;;;;6233114;23;20574;-80
2023/07/26 07:44:27;;;;;;;5.93;1.70;;;17.40;99.90;;;;;;6233539;23;20011;-80
2023/07/26 07:46:53;;;;;;;2.55;1.92;;;17.70;99.90;;;;;;6231816;23;20058;-81
2023/07/26 07:49:19;;;;;;;2.67;1.75;;;18.10;99.90;;;;;;6229906;23;20008;-80
2023/07/26 07:51:44;;;;;;;4.72;1.77;;;18.60;99.90;;;;;;6201164;23;20118;-81
2023/07/26 07:54:10;;;;;;;2.90;1.90;;;19.60;99.90;;;;;;6227354;23;20412;-81
2023/07/26 07:56:36;;;;;;;2.60;1.73;;;21.30;99.90;;;;;;6229460;23;20011;-82
2023/07/26 07:59:01;;;;;;;4.93;1.50;;;24.10;99.90;;;;;;6228007;23;20010;-81
2023/07/26 08:01:27;;;;;;;3.33;1.30;;;27.00;82.10;;;;;;6229755;23;20008;-78
2023/07/26 08:03:52;;;;;;;1.83;1.30;;;29.70;65.90;;;;;;6229193;23;20042;-78
2023/07/26 08:06:18;;;;;;;2.28;1.30;;;32.00;57.30;;;;;;6230379;23;20813;-78
2023/07/26 08:08:44;;;;;;;4.13;1.30;;;33.90;49.20;;;;;;6233006;23;20004;-78
2023/07/26 08:11:10;;;;;;;5.10;1.10;;;35.00;46.70;;;;;;6204325;23;20018;-79
2023/07/26 08:13:36;;;;;;;2.63;1.20;;;36.10;44.00;;;;;;6228170;23;20481;-79
2023/07/26 08:16:02;;;;;;;2.03;1.23;;;36.90;42.80;;;;;;6229308;23;20024;-79
2023/07/26 08:18:28;;;;;;;1.85;0.93;;;37.50;40.70;;;;;;6228743;23;20027;-78
2023/07/26 08:20:53;;;;;;;2.45;1.15;;;37.50;38.70;;;;;;6228318;23;20078;-78
2023/07/26 08:23:19;;;;;;;2.70;1.20;;;37.20;39.00;;;;;;6224975;23;20004;-79
2023/07/26 08:25:44;;;;;;;4.38;1.30;;;37.60;39.40;;;;;;6226583;23;20018;-79
2023/07/26 08:28:10;;;;;;;3.22;1.13;;;38.20;37.90;;;;;;6225806;23;20018;-79
2023/07/26 08:30:36;;;;;;;2.65;0.90;;;38.90;39.00;;;;;;6229439;23;20015;-79
2023/07/26 08:33:02;;;;;;;2.58;1.00;;;40.10;38.00;;;;;;6203394;23;20448;-78
2023/07/26 08:35:28;;;;;;;2.35;1.40;;;41.00;35.20;;;;;;6231259;23;20011;-78
2023/07/26 08:37:54;;;;;;;1.95;1.00;;;41.00;34.00;;;;;;6230214;23;20015;-79
2023/07/26 08:40:20;;;;;;;3.97;1.20;;;41.40;33.70;;;;;;6230887;23;20027;-79
2023/07/26 08:42:46;;;;;;;2.30;1.40;;;41.40;32.40;;;;;;6204011;23;20023;-79
2023/07/26 08:45:12;;;;;;;2.47;1.25;;;40.90;32.80;;;;;;6231997;23;20012;-80
2023/07/26 08:47:38;;;;;;;2.08;1.10;;;40.30;32.50;;;;;;6232218;23;20088;-80
2023/07/26 08:50:04;;;;;;;2.33;1.10;;;40.50;34.00;;;;;;6231574;23;20028;-79
2023/07/26 08:52:31;;;;;;;4.82;1.23;;;40.90;32.40;;;;;;6231313;23;20012;-80
2023/07/26 08:54:57;;;;;;;2.92;1.25;;;40.90;32.00;;;;;;6201088;23;20020;-79
2023/07/26 08:57:27;;;;;;;2.28;1.13;;;41.40;32.90;;;;;;6228871;23;20004;-80
2023/07/26 08:59:52;;;;;;;2.42;1.20;;;41.70;31.40;;;;;;6200602;23;20012;-80
2023/07/26 09:02:19;;;;;;;1.95;1.30;;;41.80;30.10;;;;;;6226426;23;20514;-80
2023/07/26 09:04:46;;;;;;;2.38;1.05;;;40.20;31.30;;;;;;6226440;23;20500;-81
2023/07/26 09:07:13;;;;;;;2.33;1.30;;;39.80;32.50;;;;;;6231935;23;20008;-81
2023/07/26 09:09:40;;;;;;;2.45;1.33;;;38.00;31.80;;;;;;6229692;23;20023;-81
2023/07/26 09:12:07;;;;;;;2.95;1.30;;;35.40;32.70;;;;;;6228806;23;20039;-79
2023/07/26 09:14:34;;;;;;;1.88;1.30;;;34.70;35.60;;;;;;6228297;23;20094;-79
2023/07/26 09:17:02;;;;;;;2.80;1.38;;;35.50;36.60;;;;;;6228863;23;20008;-82
2023/07/26 09:19:29;;;;;;;2.35;1.40;;;36.70;36.20;;;;;;6230804;23;20399;-80
2023/07/26 09:21:59;;;;;;;6.53;1.27;;;38.00;34.50;;;;;;6231560;23;20031;-80
2023/07/26 09:24:36;;;;;;;1.38;0.85;;;39.50;32.20;;;;;;6231321;23;20091;-81
2023/07/26 09:27:07;;;;;;;2.08;1.25;;;41.10;31.80;;;;;;6230406;23;20016;-81
2023/07/26 09:29:34;;;;;;;4.22;1.30;;;42.40;30.00;;;;;;6231696;23;20008;-81
2023/07/26 09:32:00;;;;;;;2.85;1.27;;;42.80;29.50;;;;;;6231504;23;20004;-81
2023/07/26 09:34:26;;;;;;;2.33;1.20;;;41.20;29.30;;;;;;6204333;23;20046;-80
2023/07/26 09:36:53;;;;;;;1.88;1.25;;;39.90;29.80;;;;;;6231794;23;20090;-82
2023/07/26 09:39:21;;;;;;;2.60;1.27;;;37.20;31.90;;;;;;6232267;23;20012;-82
2023/07/26 09:41:48;;;;;;;4.32;1.20;;;35.10;34.80;;;;;;6231495;23;20073;-83
2023/07/26 09:44:21;;;;;;;2.42;1.27;;;35.20;36.10;;;;;;6231146;23;20008;-79
2023/07/26 09:46:52;;;;;;;2.65;1.23;;;35.90;33.90;;;;;;6230589;23;20400;-80
2023/07/26 09:49:21;;;;;;;2.88;1.13;;;36.70;34.20;;;;;;6232071;23;20015;-77
2023/07/26 09:51:48;;;;;;;2.28;1.00;;;37.80;34.30;;;;;;6231335;23;20004;-78
2023/07/26 09:54:14;;;;;;;1.65;1.00;;;39.60;31.90;;;;;;6231201;23;20313;-78
2023/07/26 09:56:43;;;;;;;1.98;1.35;;;41.60;31.00;;;;;;6230344;23;20011;-80
2023/07/26 09:59:11;;;;;;;2.73;1.30;;;42.90;29.20;;;;;;6230499;23;20082;-77
2023/07/26 10:01:41;;;;;;;2.30;1.30;;;43.80;29.50;;;;;;6230339;23;20016;-79
2023/07/26 10:04:39;;;;;;;1.73;1.30;;;43.90;29.20;;;;;;6228736;23;20113;-77
2023/07/26 10:07:09;;;;;;;2.67;1.35;;;41.80;27.10;;;;;;6228280;23;20024;-79
2023/07/26 10:09:39;;;;;;;3.15;1.48;;;39.10;29.70;;;;;;6227287;23;20400;-79
2023/07/26 10:12:07;;;;;;;2.92;1.83;;;35.60;32.40;;;;;;6227352;23;20008;-77
2023/07/26 10:14:34;;;;;;;2.05;1.30;;;32.90;37.30;;;;;;6231811;23;20000;-79
2023/07/26 10:17:02;;;;;;;2.88;1.40;;;31.00;41.90;;;;;;6230304;23;20019;-80
2023/07/26 10:19:29;;;;;;;2.92;1.70;;;29.30;42.50;;;;;;6226652;23;20675;-80
2023/07/26 10:21:56;;;;;;;2.22;1.55;;;27.80;46.20;;;;;;6201184;23;20019;-79
2023/07/26 10:24:23;;;;;;;2.63;1.30;;;27.00;48.80;;;;;;6229849;23;20000;-80
2023/07/26 10:26:50;;;;;;;3.72;1.42;;;26.60;50.40;;;;;;6201858;23;20020;-80
2023/07/26 10:29:18;;;;;;;3.22;1.67;;;26.40;50.60;;;;;;6201793;23;20023;-82
2023/07/26 10:31:44;;;;;;;2.22;1.50;;;26.40;50.60;;;;;;6239108;23;20008;-90
2023/07/26 10:34:18;;;;;;;3.40;1.70;;;26.10;51.20;;;;;;6236601;23;20556;-85
2023/07/26 10:36:43;;;;;;;2.08;1.50;;;25.60;50.50;;;;;;6236346;23;20022;-85
2023/07/26 10:39:11;;;;;;;2.70;1.70;;;25.80;51.70;;;;;;6236809;23;20031;-87
2023/07/26 10:41:37;;;;;;;1.85;1.33;;;27.20;51.20;;;;;;6238548;23;20041;-91
2023/07/26 10:44:11;;;;;;;3.78;1.40;;;29.70;49.40;;;;;;6243155;23;20083;-88
2023/07/26 10:46:48;;;;;;;3.40;1.40;;;32.00;43.20;;;;;;6238843;22;20400;-67
2023/07/26 10:49:28;;;;;;;4.03;1.48;;;33.60;41.40;;;;;;6224414;23;20008;-67
2023/07/26 10:52:00;;;;;;;3.22;1.60;;;34.70;39.10;;;;;;6222942;23;20015;-67
2023/07/26 10:54:39;;;;;;;4.00;1.80;;;35.60;37.20;;;;;;6222446;23;20223;-67
2023/07/26 10:57:20;;;;;;;2.50;1.38;;;34.60;39.10;;;;;;6221519;23;20012;-67
2023/07/26 11:00:09;;;;;;;2.35;1.50;;;33.50;36.40;;;;;;6196269;23;20044;-66
2023/07/26 11:02:35;;;;;;;2.50;1.60;;;32.80;39.80;;;;;;6221499;23;20519;-67
2023/07/26 11:05:02;;;;;;;1.83;1.38;;;34.30;37.50;;;;;;6220594;23;20004;-66
2023/07/26 11:07:51;;;;;;;3.03;1.50;;;34.90;37.40;;;;;;6221689;23;20039;-67
2023/07/26 11:10:22;;;;;;;1.58;1.10;;;35.50;36.10;;;;;;6219048;23;20271;-66
2023/07/26 11:13:08;;;;;;;2.35;1.38;;;37.00;37.70;;;;;;6193722;23;20000;-67
2023/07/26 11:15:36;;;;;;;2.70;1.27;;;37.80;32.60;;;;;;6219690;23;20323;-66
2023/07/26 11:18:03;;;;;;;4.07;1.40;;;38.70;35.80;;;;;;6222376;23;20007;-66
2023/07/26 11:20:28;;;;;;;2.13;1.20;;;38.90;33.20;;;;;;6227312;23;20012;-66
2023/07/26 11:22:54;;;;;;;2.10;1.08;;;38.20;32.30;;;;;;6225031;23;20473;-66
2023/07/26 11:25:20;;;;;;;4.53;1.42;;;38.00;31.90;;;;;;6224192;23;20000;-66
2023/07/26 11:27:47;;;;;;;2.63;1.30;;;36.70;33.90;;;;;;6224651;23;20015;-66
2023/07/26 11:30:18;;;;;;;1.92;1.40;;;36.40;37.70;;;;;;6200894;23;20552;-66
2023/07/26 11:32:44;;;;;;;3.58;1.85;;;35.50;35.80;;;;;;6228451;23;20093;-66
2023/07/26 11:35:10;;;;;;;3.33;1.27;;;35.70;33.70;;;;;;6229201;23;20325;-66
2023/07/26 11:37:36;;;;;;;2.50;1.20;;;34.70;34.40;;;;;;6224892;23;20020;-66
2023/07/26 11:40:09;;;;;;;1.63;1.38;;;33.80;37.30;;;;;;6223495;23;20014;-66
2023/07/26 11:42:35;;;;;;;3.33;1.60;;;31.70;39.00;;;;;;6226071;23;20214;-66
2023/07/26 11:45:06;;;;;;;2.28;1.30;;;30.90;40.90;;;;;;6225111;23;20008;-66
2023/07/26 11:47:35;;;;;;;2.53;1.70;;;30.00;42.60;;;;;;6222938;23;20016;-66
2023/07/26 11:50:04;;;;;;;3.10;1.97;;;29.20;43.10;;;;;;6225116;23;20156;-66
2023/07/26 11:52:30;;;;;;;2.25;1.80;;;28.70;42.50;;;;;;6227997;23;20004;-66
2023/07/26 11:55:01;;;;;;;2.58;1.70;;;28.50;39.80;;;;;;6229254;23;20473;-66
2023/07/26 11:57:28;;;;;;;2.90;1.80;;;28.30;43.70;;;;;;6228220;23;20182;-66
2023/07/26 12:00:00;;;;;;;4.07;2.35;;;27.50;42.10;;;;;;6228388;23;20008;-66
2023/07/26 12:02:26;;;;;;;3.40;2.20;;;27.90;46.30;;;;;;6225985;23;20050;-66
2023/07/26 12:05:21;;;;;;;2.40;1.75;;;27.90;43.10;;;;;;6228905;23;20091;-66
2023/07/26 12:07:53;;;;;;;2.28;1.63;;;28.70;41.00;;;;;;6228411;23;20008;-66
2023/07/26 12:10:26;;;;;;;4.72;2.15;;;28.50;43.40;;;;;;6229036;23;20011;-66
2023/07/26 12:12:52;;;;;;;2.72;2.05;;;28.50;43.40;;;;;;6223881;23;20416;-66
2023/07/26 12:15:18;;;;;;;3.63;1.60;;;28.10;43.40;;;;;;6225927;23;20012;-66
2023/07/26 12:18:02;;;;;;;3.55;1.65;;;28.20;47.00;;;;;;6196296;23;20224;-66
2023/07/26 12:20:29;;;;;;;2.70;1.60;;;28.60;44.40;;;;;;6199718;23;20378;-66
2023/07/26 12:23:00;;;;;;;6.45;2.58;;;29.00;46.80;;;;;;6224747;23;20032;-66
2023/07/26 12:25:36;;;;;;;3.67;2.20;;;28.70;42.10;;;;;;6194622;23;20336;-67
2023/07/26 12:28:06;;;;;;;4.10;2.05;;;27.90;45.10;;;;;;6221054;23;20015;-67
2023/07/26 12:30:31;;;;;;;3.65;1.83;;;27.90;45.70;;;;;;6225448;23;20000;-67
2023/07/26 12:33:11;;;;;;;4.38;2.22;;;27.70;45.60;;;;;;6224607;23;20058;-67
2023/07/26 12:35:38;;;;;;;3.10;2.10;;;27.40;47.10;;;;;;6226871;23;20011;-67
2023/07/26 12:38:21;;;;;;;3.60;1.70;;;27.80;47.10;;;;;;6225804;23;20057;-68
2023/07/26 12:40:48;;;;;;;2.92;1.63;;;27.50;47.90;;;;;;6226256;23;20038;-67
2023/07/26 12:43:19;;;;;;;4.03;1.55;;;28.10;49.50;;;;;;6227108;23;20084;-66
2023/07/26 12:45:45;;;;;;;3.05;1.50;;;28.50;46.50;;;;;;6228115;23;20012;-67
2023/07/26 12:48:10;;;;;;;2.80;1.65;;;28.40;48.30;;;;;;6227866;23;20176;-67